sensor_id;sensor_type;location;lat;lon;timestamp;pressure;altitude;pressure_sealevel;temperature
66170;BMP280;66757;44.024;20.456;2023-05-10T00:01:42;98101.66;;;11.75
66170;BMP280;66757;44.024;20.456;2023-05-10T00:04:09;98104.34;;;11.84
66170;BMP280;66757;44.024;20.456;2023-05-10T00:06:34;98096.75;;;11.99
66170;BMP280;66757;44.024;20.456;2023-05-10T00:08:59;98097.69;;;11.95
66170;BMP280;66757;44.024;20.456;2023-05-10T00:11:25;98093.72;;;11.84
66170;BMP280;66757;44.024;20.456;2023-05-10T00:13:50;98097.69;;;11.95
66170;BMP280;66757;44.024;20.456;2023-05-10T00:16:16;98091.16;;;12.01
66170;BMP280;66757;44.024;20.456;2023-05-10T00:18:41;98083.31;;;11.96
66170;BMP280;66757;44.024;20.456;2023-05-10T00:21:06;98082.75;;;11.85
66170;BMP280;66757;44.024;20.456;2023-05-10T00:23:32;98080.50;;;11.70
66170;BMP280;66757;44.024;20.456;2023-05-10T00:25:57;98081.56;;;11.60
66170;BMP280;66757;44.024;20.456;2023-05-10T00:28:22;98072.22;;;11.71
66170;BMP280;66757;44.024;20.456;2023-05-10T00:30:47;98072.44;;;11.75
66170;BMP280;66757;44.024;20.456;2023-05-10T00:33:13;98063.31;;;11.45
66170;BMP280;66757;44.024;20.456;2023-05-10T00:35:38;98062.69;;;11.48
66170;BMP280;66757;44.024;20.456;2023-05-10T00:38:04;98062.81;;;11.43
66170;BMP280;66757;44.024;20.456;2023-05-10T00:40:30;98059.59;;;11.46
66170;BMP280;66757;44.024;20.456;2023-05-10T00:42:56;98058.09;;;11.62
66170;BMP280;66757;44.024;20.456;2023-05-10T00:45:22;98051.25;;;11.61
66170;BMP280;66757;44.024;20.456;2023-05-10T00:47:48;98053.22;;;11.33
66170;BMP280;66757;44.024;20.456;2023-05-10T00:50:15;98046.31;;;11.55
66170;BMP280;66757;44.024;20.456;2023-05-10T00:52:41;98051.34;;;11.34
66170;BMP280;66757;44.024;20.456;2023-05-10T00:55:08;98048.31;;;11.05
66170;BMP280;66757;44.024;20.456;2023-05-10T00:57:35;98052.00;;;11.17
66170;BMP280;66757;44.024;20.456;2023-05-10T01:00:02;98047.41;;;11.45
66170;BMP280;66757;44.024;20.456;2023-05-10T01:02:28;98045.00;;;11.44
66170;BMP280;66757;44.024;20.456;2023-05-10T01:04:53;98038.78;;;11.26
66170;BMP280;66757;44.024;20.456;2023-05-10T01:07:19;98037.69;;;11.05
66170;BMP280;66757;44.024;20.456;2023-05-10T01:09:44;98028.34;;;11.07
66170;BMP280;66757;44.024;20.456;2023-05-10T01:12:12;98023.69;;;11.13
66170;BMP280;66757;44.024;20.456;2023-05-10T01:14:37;98023.41;;;11.37
66170;BMP280;66757;44.024;20.456;2023-05-10T01:17:03;98030.97;;;11.21
66170;BMP280;66757;44.024;20.456;2023-05-10T01:19:30;98026.72;;;11.42
66170;BMP280;66757;44.024;20.456;2023-05-10T01:30:05;98017.97;;;11.42
66170;BMP280;66757;44.024;20.456;2023-05-10T01:37:47;98019.72;;;11.68
66170;BMP280;66757;44.024;20.456;2023-05-10T01:42:51;98012.81;;;11.67
66170;BMP280;66757;44.024;20.456;2023-05-10T01:45:20;98008.75;;;11.61
66170;BMP280;66757;44.024;20.456;2023-05-10T01:47:46;98010.72;;;11.56
66170;BMP280;66757;44.024;20.456;2023-05-10T01:50:19;98011.81;;;11.32
66170;BMP280;66757;44.024;20.456;2023-05-10T01:55:40;98007.41;;;11.50
66170;BMP280;66757;44.024;20.456;2023-05-10T01:58:09;98004.28;;;11.48
66170;BMP280;66757;44.024;20.456;2023-05-10T02:00:35;97999.75;;;11.49
66170;BMP280;66757;44.024;20.456;2023-05-10T02:03:04;98000.03;;;11.69
66170;BMP280;66757;44.024;20.456;2023-05-10T02:05:31;97995.06;;;11.77
66170;BMP280;66757;44.024;20.456;2023-05-10T02:07:58;97990.25;;;11.56
66170;BMP280;66757;44.024;20.456;2023-05-10T02:10:23;97992.44;;;11.54
66170;BMP280;66757;44.024;20.456;2023-05-10T02:12:49;97993.16;;;11.68
66170;BMP280;66757;44.024;20.456;2023-05-10T02:15:22;97982.97;;;11.40
66170;BMP280;66757;44.024;20.456;2023-05-10T02:17:47;97977.63;;;11.62
66170;BMP280;66757;44.024;20.456;2023-05-10T02:20:13;97987.41;;;11.44
66170;BMP280;66757;44.024;20.456;2023-05-10T02:22:40;97982.28;;;11.56
66170;BMP280;66757;44.024;20.456;2023-05-10T02:25:05;97980.63;;;11.38
66170;BMP280;66757;44.024;20.456;2023-05-10T02:27:31;97986.38;;;11.62
66170;BMP280;66757;44.024;20.456;2023-05-10T02:29:57;97987.50;;;11.61
66170;BMP280;66757;44.024;20.456;2023-05-10T02:32:24;97981.78;;;11.77
66170;BMP280;66757;44.024;20.456;2023-05-10T02:34:51;97981.59;;;11.73
66170;BMP280;66757;44.024;20.456;2023-05-10T02:37:18;97978.66;;;11.75
66170;BMP280;66757;44.024;20.456;2023-05-10T02:39:46;97979.03;;;11.59
66170;BMP280;66757;44.024;20.456;2023-05-10T02:42:13;97986.25;;;11.67
66170;BMP280;66757;44.024;20.456;2023-05-10T02:44:40;97980.78;;;11.42
66170;BMP280;66757;44.024;20.456;2023-05-10T02:47:07;97974.59;;;11.46
66170;BMP280;66757;44.024;20.456;2023-05-10T02:49:33;97975.75;;;11.62
66170;BMP280;66757;44.024;20.456;2023-05-10T02:52:00;97975.31;;;11.60
66170;BMP280;66757;44.024;20.456;2023-05-10T02:54:29;97973.53;;;11.56
66170;BMP280;66757;44.024;20.456;2023-05-10T02:56:56;97977.03;;;11.65
66170;BMP280;66757;44.024;20.456;2023-05-10T02:59:22;97976.00;;;11.75
66170;BMP280;66757;44.024;20.456;2023-05-10T03:01:47;97971.94;;;11.86
66170;BMP280;66757;44.024;20.456;2023-05-10T03:07:02;97968.84;;;11.53
66170;BMP280;66757;44.024;20.456;2023-05-10T03:09:28;97967.38;;;11.69
66170;BMP280;66757;44.024;20.456;2023-05-10T03:12:00;97973.50;;;11.87
66170;BMP280;66757;44.024;20.456;2023-05-10T03:17:22;97965.16;;;11.71
66170;BMP280;66757;44.024;20.456;2023-05-10T03:22:19;97965.22;;;11.88
66170;BMP280;66757;44.024;20.456;2023-05-10T03:24:46;97966.97;;;11.93
66170;BMP280;66757;44.024;20.456;2023-05-10T03:27:12;97966.72;;;11.72
66170;BMP280;66757;44.024;20.456;2023-05-10T03:29:39;97964.91;;;11.81
66170;BMP280;66757;44.024;20.456;2023-05-10T03:32:04;97961.50;;;11.89
66170;BMP280;66757;44.024;20.456;2023-05-10T03:34:30;97968.75;;;12.06
66170;BMP280;66757;44.024;20.456;2023-05-10T03:36:56;97967.56;;;11.81
66170;BMP280;66757;44.024;20.456;2023-05-10T03:39:21;97970.59;;;11.97
66170;BMP280;66757;44.024;20.456;2023-05-10T03:41:49;97966.38;;;11.96
66170;BMP280;66757;44.024;20.456;2023-05-10T03:44:14;97967.66;;;12.07
66170;BMP280;66757;44.024;20.456;2023-05-10T03:46:39;97962.34;;;12.07
66170;BMP280;66757;44.024;20.456;2023-05-10T03:49:05;97967.22;;;12.31
66170;BMP280;66757;44.024;20.456;2023-05-10T03:51:30;97965.38;;;12.40
66170;BMP280;66757;44.024;20.456;2023-05-10T03:53:56;97962.09;;;12.34
66170;BMP280;66757;44.024;20.456;2023-05-10T03:56:21;97967.41;;;12.34
66170;BMP280;66757;44.024;20.456;2023-05-10T03:58:47;97967.69;;;12.24
66170;BMP280;66757;44.024;20.456;2023-05-10T04:01:12;97967.28;;;12.00
66170;BMP280;66757;44.024;20.456;2023-05-10T04:03:37;97971.94;;;12.42
66170;BMP280;66757;44.024;20.456;2023-05-10T04:06:04;97963.81;;;12.48
66170;BMP280;66757;44.024;20.456;2023-05-10T04:08:30;97971.16;;;12.42
66170;BMP280;66757;44.024;20.456;2023-05-10T04:11:09;97966.16;;;12.40
66170;BMP280;66757;44.024;20.456;2023-05-10T04:13:34;97969.31;;;12.60
66170;BMP280;66757;44.024;20.456;2023-05-10T04:16:00;97962.69;;;12.23
66170;BMP280;66757;44.024;20.456;2023-05-10T04:18:25;97965.56;;;12.78
66170;BMP280;66757;44.024;20.456;2023-05-10T04:20:52;97976.81;;;12.75
66170;BMP280;66757;44.024;20.456;2023-05-10T04:23:17;97983.09;;;12.88
66170;BMP280;66757;44.024;20.456;2023-05-10T04:25:42;97973.34;;;13.18
66170;BMP280;66757;44.024;20.456;2023-05-10T04:28:08;97975.38;;;13.21
66170;BMP280;66757;44.024;20.456;2023-05-10T04:30:33;97968.50;;;13.11
66170;BMP280;66757;44.024;20.456;2023-05-10T04:32:58;97968.38;;;13.07
66170;BMP280;66757;44.024;20.456;2023-05-10T04:35:24;97979.13;;;13.28
66170;BMP280;66757;44.024;20.456;2023-05-10T04:37:49;97972.28;;;12.75
66170;BMP280;66757;44.024;20.456;2023-05-10T04:40:15;97968.63;;;13.23
66170;BMP280;66757;44.024;20.456;2023-05-10T04:42:41;97969.56;;;13.19
66170;BMP280;66757;44.024;20.456;2023-05-10T04:45:06;97966.50;;;13.08
66170;BMP280;66757;44.024;20.456;2023-05-10T04:47:32;97962.06;;;13.12
66170;BMP280;66757;44.024;20.456;2023-05-10T04:49:57;97972.88;;;13.16
66170;BMP280;66757;44.024;20.456;2023-05-10T04:52:23;97966.28;;;13.22
66170;BMP280;66757;44.024;20.456;2023-05-10T04:54:48;97970.41;;;13.48
66170;BMP280;66757;44.024;20.456;2023-05-10T04:57:14;97963.06;;;13.92
66170;BMP280;66757;44.024;20.456;2023-05-10T04:59:39;97966.56;;;14.05
66170;BMP280;66757;44.024;20.456;2023-05-10T05:02:04;97959.13;;;13.98
66170;BMP280;66757;44.024;20.456;2023-05-10T05:04:30;97964.47;;;13.90
66170;BMP280;66757;44.024;20.456;2023-05-10T05:06:56;97968.59;;;14.08
66170;BMP280;66757;44.024;20.456;2023-05-10T05:09:21;97969.31;;;13.67
66170;BMP280;66757;44.024;20.456;2023-05-10T05:11:46;97963.56;;;13.85
66170;BMP280;66757;44.024;20.456;2023-05-10T05:14:12;97970.56;;;13.61
66170;BMP280;66757;44.024;20.456;2023-05-10T05:16:38;97968.22;;;13.59
66170;BMP280;66757;44.024;20.456;2023-05-10T05:19:03;97970.16;;;13.79
66170;BMP280;66757;44.024;20.456;2023-05-10T05:21:30;97971.69;;;13.89
66170;BMP280;66757;44.024;20.456;2023-05-10T05:23:57;97970.22;;;13.71
66170;BMP280;66757;44.024;20.456;2023-05-10T05:26:22;97974.19;;;13.56
66170;BMP280;66757;44.024;20.456;2023-05-10T05:28:47;97983.91;;;13.61
66170;BMP280;66757;44.024;20.456;2023-05-10T05:31:13;97979.00;;;13.63
66170;BMP280;66757;44.024;20.456;2023-05-10T05:33:39;97966.84;;;13.53
66170;BMP280;66757;44.024;20.456;2023-05-10T05:36:04;97974.84;;;13.53
66170;BMP280;66757;44.024;20.456;2023-05-10T05:38:30;97968.97;;;13.68
66170;BMP280;66757;44.024;20.456;2023-05-10T05:40:55;97980.69;;;13.76
66170;BMP280;66757;44.024;20.456;2023-05-10T05:43:21;97971.56;;;13.47
66170;BMP280;66757;44.024;20.456;2023-05-10T05:45:46;97976.97;;;13.68
66170;BMP280;66757;44.024;20.456;2023-05-10T05:48:11;97969.00;;;13.60
66170;BMP280;66757;44.024;20.456;2023-05-10T05:50:38;97969.69;;;13.39
66170;BMP280;66757;44.024;20.456;2023-05-10T05:53:03;97980.22;;;13.74
66170;BMP280;66757;44.024;20.456;2023-05-10T05:55:30;97974.78;;;13.62
66170;BMP280;66757;44.024;20.456;2023-05-10T05:57:57;97978.88;;;13.97
66170;BMP280;66757;44.024;20.456;2023-05-10T06:00:23;97980.44;;;13.98
66170;BMP280;66757;44.024;20.456;2023-05-10T06:02:48;97968.03;;;13.94
66170;BMP280;66757;44.024;20.456;2023-05-10T06:05:13;97985.53;;;13.74
66170;BMP280;66757;44.024;20.456;2023-05-10T06:07:39;97988.00;;;13.87
66170;BMP280;66757;44.024;20.456;2023-05-10T06:10:07;97985.91;;;14.02
66170;BMP280;66757;44.024;20.456;2023-05-10T06:12:32;97987.00;;;14.01
66170;BMP280;66757;44.024;20.456;2023-05-10T06:14:58;97991.78;;;14.37
66170;BMP280;66757;44.024;20.456;2023-05-10T06:17:24;97990.22;;;14.15
66170;BMP280;66757;44.024;20.456;2023-05-10T06:19:50;97998.34;;;14.18
66170;BMP280;66757;44.024;20.456;2023-05-10T06:22:15;97993.59;;;14.03
66170;BMP280;66757;44.024;20.456;2023-05-10T06:24:40;98001.69;;;14.36
66170;BMP280;66757;44.024;20.456;2023-05-10T06:27:06;97989.91;;;14.37
66170;BMP280;66757;44.024;20.456;2023-05-10T06:29:32;97992.56;;;14.37
66170;BMP280;66757;44.024;20.456;2023-05-10T06:31:57;97993.25;;;14.34
66170;BMP280;66757;44.024;20.456;2023-05-10T06:34:23;97992.19;;;14.47
66170;BMP280;66757;44.024;20.456;2023-05-10T06:36:49;97979.53;;;14.44
66170;BMP280;66757;44.024;20.456;2023-05-10T06:39:14;97989.06;;;14.66
66170;BMP280;66757;44.024;20.456;2023-05-10T06:41:40;97986.69;;;14.23
66170;BMP280;66757;44.024;20.456;2023-05-10T06:44:05;97993.75;;;14.48
66170;BMP280;66757;44.024;20.456;2023-05-10T06:46:31;97996.56;;;14.93
66170;BMP280;66757;44.024;20.456;2023-05-10T06:48:57;97988.47;;;15.14
66170;BMP280;66757;44.024;20.456;2023-05-10T06:51:22;97984.75;;;15.40
66170;BMP280;66757;44.024;20.456;2023-05-10T06:53:47;97992.56;;;15.69
66170;BMP280;66757;44.024;20.456;2023-05-10T06:56:13;97991.56;;;15.49
66170;BMP280;66757;44.024;20.456;2023-05-10T06:58:39;97990.50;;;15.29
66170;BMP280;66757;44.024;20.456;2023-05-10T07:01:04;97998.31;;;15.34
66170;BMP280;66757;44.024;20.456;2023-05-10T07:03:30;97995.59;;;15.10
66170;BMP280;66757;44.024;20.456;2023-05-10T07:06:00;97995.59;;;15.10
66170;BMP280;66757;44.024;20.456;2023-05-10T07:08:25;97997.66;;;14.92
66170;BMP280;66757;44.024;20.456;2023-05-10T07:10:53;97995.06;;;15.29
66170;BMP280;66757;44.024;20.456;2023-05-10T07:13:18;97989.44;;;15.43
66170;BMP280;66757;44.024;20.456;2023-05-10T07:15:43;97994.13;;;15.33
66170;BMP280;66757;44.024;20.456;2023-05-10T07:18:09;98001.16;;;15.62
66170;BMP280;66757;44.024;20.456;2023-05-10T07:20:35;97989.47;;;15.67
66170;BMP280;66757;44.024;20.456;2023-05-10T07:23:00;97995.81;;;15.87
66170;BMP280;66757;44.024;20.456;2023-05-10T07:25:25;97994.03;;;15.09
66170;BMP280;66757;44.024;20.456;2023-05-10T07:27:51;97991.97;;;15.27
66170;BMP280;66757;44.024;20.456;2023-05-10T07:30:16;97993.81;;;15.02
66170;BMP280;66757;44.024;20.456;2023-05-10T07:32:41;97989.84;;;15.20
66170;BMP280;66757;44.024;20.456;2023-05-10T07:35:07;97995.81;;;15.05
66170;BMP280;66757;44.024;20.456;2023-05-10T07:37:33;97990.34;;;15.47
66170;BMP280;66757;44.024;20.456;2023-05-10T07:39:58;97992.31;;;15.38
66170;BMP280;66757;44.024;20.456;2023-05-10T07:42:24;97997.38;;;15.76
66170;BMP280;66757;44.024;20.456;2023-05-10T07:44:52;97998.53;;;15.29
66170;BMP280;66757;44.024;20.456;2023-05-10T07:47:18;97997.13;;;15.68
66170;BMP280;66757;44.024;20.456;2023-05-10T07:49:44;97991.03;;;15.56
66170;BMP280;66757;44.024;20.456;2023-05-10T07:52:09;97996.00;;;15.57
66170;BMP280;66757;44.024;20.456;2023-05-10T07:54:35;98002.41;;;15.65
66170;BMP280;66757;44.024;20.456;2023-05-10T07:57:01;98005.88;;;15.20
66170;BMP280;66757;44.024;20.456;2023-05-10T07:59:27;98005.53;;;15.67
66170;BMP280;66757;44.024;20.456;2023-05-10T08:01:53;98008.72;;;15.72
66170;BMP280;66757;44.024;20.456;2023-05-10T08:04:18;98017.53;;;15.85
66170;BMP280;66757;44.024;20.456;2023-05-10T08:06:44;98015.75;;;15.89
66170;BMP280;66757;44.024;20.456;2023-05-10T08:09:10;98015.53;;;15.70
66170;BMP280;66757;44.024;20.456;2023-05-10T08:11:35;98016.78;;;16.09
66170;BMP280;66757;44.024;20.456;2023-05-10T08:14:01;98011.84;;;16.35
66170;BMP280;66757;44.024;20.456;2023-05-10T08:16:27;98011.91;;;16.39
66170;BMP280;66757;44.024;20.456;2023-05-10T08:18:53;98009.63;;;16.65
66170;BMP280;66757;44.024;20.456;2023-05-10T08:21:20;98005.47;;;16.96
66170;BMP280;66757;44.024;20.456;2023-05-10T08:23:45;98017.16;;;16.47
66170;BMP280;66757;44.024;20.456;2023-05-10T08:26:11;98008.13;;;16.40
66170;BMP280;66757;44.024;20.456;2023-05-10T08:28:36;98014.78;;;16.58
66170;BMP280;66757;44.024;20.456;2023-05-10T08:31:01;98011.00;;;16.47
66170;BMP280;66757;44.024;20.456;2023-05-10T08:33:27;98008.34;;;16.75
66170;BMP280;66757;44.024;20.456;2023-05-10T08:35:52;98013.22;;;16.85
66170;BMP280;66757;44.024;20.456;2023-05-10T08:38:18;98011.97;;;17.10
66170;BMP280;66757;44.024;20.456;2023-05-10T08:40:44;98009.41;;;17.14
66170;BMP280;66757;44.024;20.456;2023-05-10T08:43:12;98022.50;;;16.75
66170;BMP280;66757;44.024;20.456;2023-05-10T08:45:42;98022.34;;;16.68
66170;BMP280;66757;44.024;20.456;2023-05-10T08:48:08;98028.09;;;16.82
66170;BMP280;66757;44.024;20.456;2023-05-10T08:50:38;98008.25;;;16.71
66170;BMP280;66757;44.024;20.456;2023-05-10T08:53:05;98013.81;;;16.50
66170;BMP280;66757;44.024;20.456;2023-05-10T08:55:32;98013.69;;;16.47
66170;BMP280;66757;44.024;20.456;2023-05-10T08:57:59;98017.91;;;16.48
66170;BMP280;66757;44.024;20.456;2023-05-10T09:00:25;98012.13;;;16.46
66170;BMP280;66757;44.024;20.456;2023-05-10T09:02:51;98011.16;;;16.78
66170;BMP280;66757;44.024;20.456;2023-05-10T09:05:17;98006.59;;;16.95
66170;BMP280;66757;44.024;20.456;2023-05-10T09:07:42;98015.19;;;17.16
66170;BMP280;66757;44.024;20.456;2023-05-10T09:10:08;97999.44;;;16.99
66170;BMP280;66757;44.024;20.456;2023-05-10T09:12:35;98004.31;;;17.09
66170;BMP280;66757;44.024;20.456;2023-05-10T09:15:01;98005.69;;;17.18
66170;BMP280;66757;44.024;20.456;2023-05-10T09:17:26;98009.00;;;17.59
66170;BMP280;66757;44.024;20.456;2023-05-10T09:19:59;98002.50;;;17.44
66170;BMP280;66757;44.024;20.456;2023-05-10T09:22:24;98004.03;;;17.29
66170;BMP280;66757;44.024;20.456;2023-05-10T09:25:03;98006.69;;;16.98
66170;BMP280;66757;44.024;20.456;2023-05-10T09:27:28;98003.84;;;16.63
66170;BMP280;66757;44.024;20.456;2023-05-10T09:29:53;98005.28;;;16.88
66170;BMP280;66757;44.024;20.456;2023-05-10T09:32:20;97999.53;;;16.74
66170;BMP280;66757;44.024;20.456;2023-05-10T09:34:45;98003.25;;;16.98
66170;BMP280;66757;44.024;20.456;2023-05-10T09:37:11;98000.91;;;16.16
66170;BMP280;66757;44.024;20.456;2023-05-10T09:39:36;98002.38;;;16.66
66170;BMP280;66757;44.024;20.456;2023-05-10T09:42:03;98004.19;;;17.05
66170;BMP280;66757;44.024;20.456;2023-05-10T09:44:29;97989.63;;;16.90
66170;BMP280;66757;44.024;20.456;2023-05-10T09:46:57;97996.69;;;17.11
66170;BMP280;66757;44.024;20.456;2023-05-10T09:49:24;97993.59;;;17.09
66170;BMP280;66757;44.024;20.456;2023-05-10T09:52:02;97986.84;;;16.59
66170;BMP280;66757;44.024;20.456;2023-05-10T09:54:28;97991.94;;;16.48
66170;BMP280;66757;44.024;20.456;2023-05-10T09:56:53;97994.16;;;16.46
66170;BMP280;66757;44.024;20.456;2023-05-10T09:59:19;97986.19;;;16.62
66170;BMP280;66757;44.024;20.456;2023-05-10T10:01:49;97976.81;;;16.68
66170;BMP280;66757;44.024;20.456;2023-05-10T10:04:14;97970.31;;;16.69
66170;BMP280;66757;44.024;20.456;2023-05-10T10:06:41;97976.09;;;17.15
66170;BMP280;66757;44.024;20.456;2023-05-10T10:09:06;97971.22;;;17.05
66170;BMP280;66757;44.024;20.456;2023-05-10T10:11:33;97981.41;;;17.27
66170;BMP280;66757;44.024;20.456;2023-05-10T10:13:59;97978.97;;;17.69
66170;BMP280;66757;44.024;20.456;2023-05-10T10:16:24;97977.34;;;17.49
66170;BMP280;66757;44.024;20.456;2023-05-10T10:18:50;97984.66;;;17.36
66170;BMP280;66757;44.024;20.456;2023-05-10T10:21:15;97978.38;;;17.13
66170;BMP280;66757;44.024;20.456;2023-05-10T10:23:40;97988.47;;;17.51
66170;BMP280;66757;44.024;20.456;2023-05-10T10:26:06;97974.81;;;17.56
66170;BMP280;66757;44.024;20.456;2023-05-10T10:30:57;97969.00;;;18.04
66170;BMP280;66757;44.024;20.456;2023-05-10T10:35:55;97958.78;;;17.59
66170;BMP280;66757;44.024;20.456;2023-05-10T10:38:22;97961.38;;;18.06
66170;BMP280;66757;44.024;20.456;2023-05-10T10:40:50;97961.97;;;17.81
66170;BMP280;66757;44.024;20.456;2023-05-10T10:43:27;97964.03;;;17.52
66170;BMP280;66757;44.024;20.456;2023-05-10T10:46:11;97955.94;;;18.03
66170;BMP280;66757;44.024;20.456;2023-05-10T10:48:41;97950.16;;;18.20
66170;BMP280;66757;44.024;20.456;2023-05-10T10:51:07;97949.09;;;18.25
66170;BMP280;66757;44.024;20.456;2023-05-10T10:53:32;97949.72;;;17.99
66170;BMP280;66757;44.024;20.456;2023-05-10T10:56:07;97955.28;;;18.44
66170;BMP280;66757;44.024;20.456;2023-05-10T10:58:34;97951.69;;;17.83
66170;BMP280;66757;44.024;20.456;2023-05-10T11:01:15;97954.56;;;17.93
66170;BMP280;66757;44.024;20.456;2023-05-10T11:04:27;97944.31;;;17.80
66170;BMP280;66757;44.024;20.456;2023-05-10T11:06:31;97954.13;;;18.07
66170;BMP280;66757;44.024;20.456;2023-05-10T11:08:57;97935.75;;;18.28
66170;BMP280;66757;44.024;20.456;2023-05-10T11:11:23;97943.47;;;18.30
66170;BMP280;66757;44.024;20.456;2023-05-10T11:13:48;97944.84;;;18.24
66170;BMP280;66757;44.024;20.456;2023-05-10T11:21:18;97937.72;;;18.51
66170;BMP280;66757;44.024;20.456;2023-05-10T11:26:08;97932.84;;;18.79
66170;BMP280;66757;44.024;20.456;2023-05-10T11:28:34;97926.41;;;18.61
66170;BMP280;66757;44.024;20.456;2023-05-10T11:31:00;97933.78;;;18.25
66170;BMP280;66757;44.024;20.456;2023-05-10T11:33:25;97931.66;;;18.15
66170;BMP280;66757;44.024;20.456;2023-05-10T11:38:42;97930.06;;;17.95
66170;BMP280;66757;44.024;20.456;2023-05-10T11:41:08;97929.25;;;18.49
66170;BMP280;66757;44.024;20.456;2023-05-10T11:43:35;97925.22;;;18.39
66170;BMP280;66757;44.024;20.456;2023-05-10T11:46:02;97917.94;;;18.59
66170;BMP280;66757;44.024;20.456;2023-05-10T11:48:29;97923.91;;;18.29
66170;BMP280;66757;44.024;20.456;2023-05-10T11:50:54;97929.25;;;17.75
66170;BMP280;66757;44.024;20.456;2023-05-10T11:53:22;97929.94;;;17.88
66170;BMP280;66757;44.024;20.456;2023-05-10T11:55:48;97922.25;;;18.25
66170;BMP280;66757;44.024;20.456;2023-05-10T11:58:13;97928.56;;;18.97
66170;BMP280;66757;44.024;20.456;2023-05-10T12:00:39;97926.50;;;18.45
66170;BMP280;66757;44.024;20.456;2023-05-10T12:03:04;97927.69;;;19.39
66170;BMP280;66757;44.024;20.456;2023-05-10T12:05:31;97930.06;;;18.72
66170;BMP280;66757;44.024;20.456;2023-05-10T12:08:10;97928.19;;;19.21
66170;BMP280;66757;44.024;20.456;2023-05-10T12:10:36;97930.38;;;19.39
66170;BMP280;66757;44.024;20.456;2023-05-10T12:13:02;97914.09;;;19.05
66170;BMP280;66757;44.024;20.456;2023-05-10T12:15:28;97920.44;;;19.16
66170;BMP280;66757;44.024;20.456;2023-05-10T12:17:53;97928.63;;;18.78
66170;BMP280;66757;44.024;20.456;2023-05-10T12:20:23;97913.91;;;18.91
66170;BMP280;66757;44.024;20.456;2023-05-10T12:22:56;97910.66;;;18.40
66170;BMP280;66757;44.024;20.456;2023-05-10T12:25:22;97905.06;;;18.49
66170;BMP280;66757;44.024;20.456;2023-05-10T12:27:54;97908.41;;;19.10
66170;BMP280;66757;44.024;20.456;2023-05-10T12:30:21;97907.53;;;19.29
66170;BMP280;66757;44.024;20.456;2023-05-10T12:32:46;97898.63;;;19.21
66170;BMP280;66757;44.024;20.456;2023-05-10T12:35:11;97904.84;;;18.80
66170;BMP280;66757;44.024;20.456;2023-05-10T12:37:37;97893.78;;;18.39
66170;BMP280;66757;44.024;20.456;2023-05-10T12:40:07;97903.59;;;18.32
66170;BMP280;66757;44.024;20.456;2023-05-10T12:42:35;97889.34;;;18.51
66170;BMP280;66757;44.024;20.456;2023-05-10T12:45:01;97903.25;;;18.14
66170;BMP280;66757;44.024;20.456;2023-05-10T12:47:26;97889.22;;;18.63
66170;BMP280;66757;44.024;20.456;2023-05-10T12:49:51;97891.78;;;18.78
66170;BMP280;66757;44.024;20.456;2023-05-10T12:52:17;97894.84;;;17.96
66170;BMP280;66757;44.024;20.456;2023-05-10T12:54:42;97890.59;;;18.34
66170;BMP280;66757;44.024;20.456;2023-05-10T12:57:07;97900.91;;;18.13
66170;BMP280;66757;44.024;20.456;2023-05-10T12:59:33;97895.84;;;18.27
66170;BMP280;66757;44.024;20.456;2023-05-10T13:01:58;97890.63;;;18.79
66170;BMP280;66757;44.024;20.456;2023-05-10T13:04:23;97886.63;;;18.70
66170;BMP280;66757;44.024;20.456;2023-05-10T13:06:49;97887.72;;;19.14
66170;BMP280;66757;44.024;20.456;2023-05-10T13:09:14;97891.53;;;18.87
66170;BMP280;66757;44.024;20.456;2023-05-10T13:11:40;97878.16;;;18.68
66170;BMP280;66757;44.024;20.456;2023-05-10T13:14:06;97876.53;;;19.35
66170;BMP280;66757;44.024;20.456;2023-05-10T13:16:32;97878.13;;;19.66
66170;BMP280;66757;44.024;20.456;2023-05-10T13:18:57;97872.22;;;19.57
66170;BMP280;66757;44.024;20.456;2023-05-10T13:21:24;97867.50;;;19.20
66170;BMP280;66757;44.024;20.456;2023-05-10T13:23:50;97865.56;;;19.47
66170;BMP280;66757;44.024;20.456;2023-05-10T13:26:16;97879.69;;;19.41
66170;BMP280;66757;44.024;20.456;2023-05-10T13:28:41;97866.50;;;19.06
66170;BMP280;66757;44.024;20.456;2023-05-10T13:31:07;97862.69;;;19.63
66170;BMP280;66757;44.024;20.456;2023-05-10T13:33:32;97853.06;;;19.92
66170;BMP280;66757;44.024;20.456;2023-05-10T13:35:57;97855.47;;;19.41
66170;BMP280;66757;44.024;20.456;2023-05-10T13:38:23;97845.94;;;19.77
66170;BMP280;66757;44.024;20.456;2023-05-10T13:40:48;97849.50;;;19.84
66170;BMP280;66757;44.024;20.456;2023-05-10T13:43:18;97845.66;;;19.85
66170;BMP280;66757;44.024;20.456;2023-05-10T13:45:43;97840.72;;;19.91
66170;BMP280;66757;44.024;20.456;2023-05-10T13:48:09;97841.00;;;19.82
66170;BMP280;66757;44.024;20.456;2023-05-10T13:50:34;97839.63;;;19.62
66170;BMP280;66757;44.024;20.456;2023-05-10T13:53:02;97842.22;;;19.88
66170;BMP280;66757;44.024;20.456;2023-05-10T13:55:27;97834.94;;;19.29
66170;BMP280;66757;44.024;20.456;2023-05-10T13:57:53;97846.03;;;18.75
66170;BMP280;66757;44.024;20.456;2023-05-10T14:00:20;97837.25;;;18.78
66170;BMP280;66757;44.024;20.456;2023-05-10T14:02:46;97834.94;;;18.54
66170;BMP280;66757;44.024;20.456;2023-05-10T14:05:12;97829.88;;;18.98
66170;BMP280;66757;44.024;20.456;2023-05-10T14:07:37;97831.03;;;19.23
66170;BMP280;66757;44.024;20.456;2023-05-10T14:10:04;97829.94;;;19.01
66170;BMP280;66757;44.024;20.456;2023-05-10T14:12:29;97832.22;;;19.25
66170;BMP280;66757;44.024;20.456;2023-05-10T14:14:58;97830.03;;;19.35
66170;BMP280;66757;44.024;20.456;2023-05-10T14:17:23;97831.06;;;18.74
66170;BMP280;66757;44.024;20.456;2023-05-10T14:19:49;97833.09;;;19.33
66170;BMP280;66757;44.024;20.456;2023-05-10T14:22:14;97829.81;;;19.17
66170;BMP280;66757;44.024;20.456;2023-05-10T14:24:40;97837.50;;;19.78
66170;BMP280;66757;44.024;20.456;2023-05-10T14:27:05;97835.63;;;19.49
66170;BMP280;66757;44.024;20.456;2023-05-10T14:29:31;97839.53;;;19.88
66170;BMP280;66757;44.024;20.456;2023-05-10T14:31:56;97838.41;;;19.30
66170;BMP280;66757;44.024;20.456;2023-05-10T14:34:22;97830.63;;;19.51